createdAt,value
2017-04-24T00:01:36.140Z,1011.4
2017-04-24T00:11:47.754Z,1011.2
2017-04-24T00:21:59.325Z,1011.2
2017-04-24T00:32:10.960Z,1011
2017-04-24T00:42:22.580Z,1010.9
2017-04-24T00:52:34.285Z,1010.9
2017-04-24T01:02:46.011Z,1010.6
2017-04-24T01:12:57.797Z,1010.5
2017-04-24T01:23:09.549Z,1010.4
2017-04-24T01:33:21.320Z,1010.2
2017-04-24T01:43:33.155Z,1010
2017-04-24T01:53:45.024Z,1009.9
2017-04-24T02:03:56.878Z,1009.6
2017-04-24T02:14:08.758Z,1009.6
2017-04-24T02:24:20.720Z,1009.5
2017-04-24T02:34:32.672Z,1009.3
2017-04-24T02:44:44.588Z,1009.2
2017-04-24T02:54:56.591Z,1009.2
2017-04-24T03:05:08.621Z,1009
2017-04-24T03:15:20.657Z,1008.9
2017-04-24T03:25:32.582Z,1008.7
2017-04-24T03:35:44.565Z,1008.6
2017-04-24T03:45:56.497Z,1008.5
2017-04-24T03:56:08.400Z,1008.4
2017-04-24T04:06:20.320Z,1008.2
2017-04-24T04:16:32.228Z,1008.1
2017-04-24T04:26:44.203Z,1007.9
2017-04-24T04:36:56.111Z,1007.8
2017-04-24T04:47:07.894Z,1007.7
2017-04-24T04:57:19.487Z,1007.8
2017-04-24T05:07:30.938Z,1007.7
2017-04-24T05:17:42.255Z,1007.7
2017-04-24T05:27:53.636Z,1007.6
2017-04-24T05:38:05.008Z,1007.5
2017-04-24T05:48:16.363Z,1007.4
2017-04-24T05:58:27.750Z,1007.4
2017-04-24T06:08:38.970Z,1007.2
2017-04-24T06:18:50.088Z,1007.1
2017-04-24T06:29:01.113Z,1006.9
2017-04-24T06:39:12.065Z,1007.1
2017-04-24T06:49:22.891Z,1006.8
2017-04-24T06:59:33.665Z,1006.8
2017-04-24T07:09:44.396Z,1006.6
2017-04-24T07:19:55.015Z,1006.5
2017-04-24T07:30:05.589Z,1006.4
2017-04-24T07:40:16.050Z,1006.5
2017-04-24T07:50:26.496Z,1006.2
2017-04-24T08:00:36.755Z,1006.1
2017-04-24T08:10:47.210Z,1006.2
2017-04-24T08:20:56.904Z,1005.8
2017-04-24T08:31:06.743Z,1006
2017-04-24T08:41:16.314Z,1005.6
2017-04-24T08:51:25.894Z,1005.7
2017-04-24T09:01:35.354Z,1005.3
2017-04-24T09:11:44.703Z,1005.4
2017-04-24T09:21:53.889Z,1005.1
2017-04-24T09:32:03.046Z,1005.4
2017-04-24T09:42:12.137Z,1004.9
2017-04-24T09:52:21.183Z,1004.7
2017-04-24T10:02:30.244Z,1004.9
2017-04-24T10:12:39.135Z,1004.6
2017-04-24T10:22:47.855Z,1004.3
2017-04-24T10:32:56.499Z,1004.3
2017-04-24T10:43:05.250Z,1004.5
2017-04-24T10:53:14.088Z,1004
2017-04-24T11:03:23.113Z,1004.3
2017-04-24T11:13:32.173Z,1004.1
2017-04-24T11:23:41.113Z,1003.9
2017-04-24T11:33:50.094Z,1003.8
2017-04-24T11:43:59.083Z,1004.5
2017-04-24T11:54:08.049Z,1003.3
2017-04-24T12:04:17.068Z,1003.9
2017-04-24T12:14:25.904Z,1003.4
2017-04-24T12:24:34.650Z,1003.3
2017-04-24T12:34:43.573Z,1002.7
2017-04-24T12:44:52.583Z,1002.6
2017-04-24T12:55:01.652Z,1002.4
2017-04-24T13:05:10.491Z,1002.1
2017-04-24T13:15:19.271Z,1002
2017-04-24T13:25:28.124Z,1001.9
2017-04-24T13:35:37.297Z,1001.8
2017-04-24T13:45:46.812Z,1001.5
2017-04-24T13:55:56.463Z,1001.6
2017-04-24T14:06:06.235Z,1001.5
2017-04-24T14:16:16.013Z,1001.4
2017-04-24T14:26:25.662Z,1001.1
2017-04-24T14:36:35.176Z,1001.2
2017-04-24T14:46:44.833Z,1001.1
2017-04-24T14:56:54.438Z,1001
2017-04-24T15:07:04.092Z,1000.8
2017-04-24T15:17:13.571Z,1000.6
2017-04-24T15:27:22.957Z,1000.6
2017-04-24T15:37:32.434Z,1000.4
2017-04-24T15:47:42.077Z,1000.3
2017-04-24T15:57:51.810Z,1000.3
2017-04-24T16:08:01.679Z,1000.2
2017-04-24T16:18:11.604Z,1000.4
2017-04-24T16:28:21.687Z,1000.1
2017-04-24T16:38:31.810Z,1000.4
2017-04-24T16:48:42.008Z,999.9
2017-04-24T16:58:52.242Z,999.8
2017-04-24T17:09:02.525Z,999.7
2017-04-24T17:19:12.843Z,999.7
2017-04-24T17:29:23.216Z,999.6
2017-04-24T17:39:33.695Z,999.4
2017-04-24T17:49:44.179Z,999.1
2017-04-24T17:59:54.685Z,999
2017-04-24T18:10:05.209Z,998.9
2017-04-24T18:20:15.790Z,998.8
2017-04-24T18:30:26.355Z,998.6
2017-04-24T18:40:36.899Z,998.6
2017-04-24T18:50:47.430Z,998.4
2017-04-24T19:00:57.997Z,998.4
2017-04-24T19:11:08.584Z,998.2
2017-04-24T19:21:19.195Z,998.4
2017-04-24T19:31:29.753Z,998.3
2017-04-24T19:41:40.376Z,997.9
2017-04-24T19:51:50.999Z,998
2017-04-24T20:02:01.620Z,997.8
2017-04-24T20:12:12.116Z,997.7
2017-04-24T20:22:22.672Z,997.5
2017-04-24T20:32:33.212Z,997.4
2017-04-24T20:42:43.816Z,997
2017-04-24T20:52:54.431Z,997
2017-04-24T21:03:05.034Z,996.8
2017-04-24T21:13:15.642Z,996.5
2017-04-24T21:23:26.196Z,996.4
2017-04-24T21:33:36.740Z,996.3
2017-04-24T21:43:47.316Z,996.2
2017-04-24T21:53:57.912Z,996.2
2017-04-24T22:04:08.459Z,996
2017-04-24T22:14:19.038Z,995.9
2017-04-24T22:24:29.671Z,995.8
2017-04-24T22:34:40.301Z,995.7
2017-04-24T22:44:50.914Z,995.6
2017-04-24T22:55:01.514Z,995.4
2017-04-24T23:05:12.106Z,995.2
2017-04-24T23:15:22.708Z,995.3
2017-04-24T23:25:33.316Z,995.1
2017-04-24T23:35:44.028Z,995.9
2017-04-24T23:45:54.891Z,993.8
2017-04-24T23:56:05.876Z,992.9
